createdAt,value
2022-10-13T00:00:34.611Z,6.53
2022-10-13T00:03:22.739Z,7.20
2022-10-13T00:06:11.857Z,8.13
2022-10-13T00:09:00.297Z,7.90
2022-10-13T00:11:46.855Z,8.03
2022-10-13T00:14:33.580Z,7.67
2022-10-13T00:17:20.313Z,7.27
2022-10-13T00:20:10.274Z,6.97
2022-10-13T00:22:57.020Z,6.53
2022-10-13T00:25:44.567Z,6.27
2022-10-13T00:28:31.160Z,6.50
2022-10-13T00:31:19.529Z,6.57
2022-10-13T00:34:06.312Z,8.67
2022-10-13T00:36:54.551Z,5.67
2022-10-13T00:39:41.482Z,5.23
2022-10-13T00:42:28.406Z,5.40
2022-10-13T00:45:24.896Z,20.80
2022-10-13T00:48:11.399Z,8.37
2022-10-13T00:50:59.819Z,5.27
2022-10-13T00:53:48.709Z,9.70
2022-10-13T00:56:38.485Z,9.00
2022-10-13T00:59:29.300Z,11.20
2022-10-13T01:02:17.148Z,11.70
2022-10-13T01:05:05.126Z,11.10
2022-10-13T01:07:52.672Z,8.63
2022-10-13T01:10:54.182Z,7.17
2022-10-13T01:13:49.282Z,9.33
2022-10-13T01:16:50.100Z,9.70
2022-10-13T01:19:58.427Z,10.50
2022-10-13T01:23:01.456Z,9.10
2022-10-13T01:26:18.453Z,8.83
2022-10-13T01:29:22.767Z,7.60
2022-10-13T01:32:20.993Z,8.83
2022-10-13T01:35:13.290Z,11.57
2022-10-13T01:38:08.956Z,11.73
2022-10-13T01:41:01.922Z,10.70
2022-10-13T01:43:55.061Z,10.93
2022-10-13T01:46:42.757Z,11.50
2022-10-13T01:49:34.689Z,9.83
2022-10-13T01:52:24.098Z,11.53
2022-10-13T01:55:13.499Z,8.90
2022-10-13T01:58:00.507Z,10.07
2022-10-13T02:01:01.701Z,7.87
2022-10-13T02:03:58.968Z,7.53
2022-10-13T02:06:53.047Z,6.43
2022-10-13T02:09:49.780Z,6.17
2022-10-13T02:12:40.579Z,6.23
2022-10-13T02:15:32.354Z,5.40
2022-10-13T02:18:25.179Z,4.80
2022-10-13T02:21:11.997Z,5.13
2022-10-13T02:24:00.428Z,4.10
2022-10-13T02:26:47.309Z,4.07
2022-10-13T02:29:33.782Z,4.77
2022-10-13T02:32:21.168Z,3.73
2022-10-13T02:35:09.421Z,3.80
2022-10-13T02:37:56.265Z,4.07
2022-10-13T02:40:44.335Z,4.00
2022-10-13T02:43:33.982Z,3.77
2022-10-13T02:46:20.860Z,3.70
2022-10-13T02:49:07.673Z,3.87
2022-10-13T02:51:54.498Z,4.80
2022-10-13T02:54:41.378Z,4.13
2022-10-13T02:57:29.807Z,4.37
2022-10-13T03:00:17.860Z,4.37
2022-10-13T03:03:04.623Z,4.60
2022-10-13T03:05:51.598Z,4.47
2022-10-13T03:08:40.841Z,4.07
2022-10-13T03:11:27.812Z,4.07
2022-10-13T03:14:15.808Z,4.30
2022-10-13T03:17:02.593Z,4.07
2022-10-13T03:19:49.009Z,4.70
2022-10-13T03:22:37.757Z,4.73
2022-10-13T03:25:24.640Z,4.17
2022-10-13T03:28:11.361Z,4.90
2022-10-13T03:31:03.858Z,4.20
2022-10-13T03:33:51.378Z,5.10
2022-10-13T03:36:37.933Z,4.53
2022-10-13T03:39:25.027Z,5.40
2022-10-13T03:42:11.622Z,5.37
2022-10-13T03:44:59.188Z,5.50
2022-10-13T03:47:47.393Z,5.63
2022-10-13T03:50:34.007Z,5.53
2022-10-13T03:53:21.297Z,5.23
2022-10-13T03:56:08.958Z,5.40
2022-10-13T03:59:05.161Z,6.07
2022-10-13T04:01:52.007Z,5.90
2022-10-13T04:04:40.125Z,5.37
2022-10-13T04:07:26.831Z,5.20
2022-10-13T04:10:13.785Z,4.90
2022-10-13T04:13:01.067Z,5.30
2022-10-13T04:15:47.752Z,5.50
2022-10-13T04:18:35.430Z,5.23
2022-10-13T04:21:24.673Z,5.83
2022-10-13T04:24:13.745Z,5.53
2022-10-13T04:27:00.457Z,5.93
2022-10-13T04:29:47.727Z,5.77
2022-10-13T04:32:34.720Z,6.10
2022-10-13T04:35:22.181Z,5.90
2022-10-13T04:38:10.464Z,7.67
2022-10-13T04:40:57.177Z,6.80
2022-10-13T04:43:49.169Z,6.03
2022-10-13T04:46:36.523Z,6.23
2022-10-13T04:49:23.184Z,5.70
2022-10-13T04:52:10.009Z,7.73
2022-10-13T04:54:58.286Z,6.87
2022-10-13T04:57:45.050Z,7.93
2022-10-13T05:00:40.228Z,7.00
2022-10-13T05:03:29.268Z,7.33
2022-10-13T05:06:17.516Z,7.40
2022-10-13T05:09:07.532Z,6.67
2022-10-13T05:11:55.797Z,6.67
2022-10-13T05:14:42.481Z,7.63
2022-10-13T05:17:35.053Z,7.63
2022-10-13T05:20:25.740Z,7.70
2022-10-13T05:23:12.593Z,7.37
2022-10-13T05:26:02.642Z,7.13
2022-10-13T05:28:50.702Z,6.87
2022-10-13T05:31:37.296Z,6.90
2022-10-13T05:34:23.764Z,6.70
2022-10-13T05:37:11.718Z,6.63
2022-10-13T05:39:59.760Z,7.63
2022-10-13T05:42:46.512Z,8.20
2022-10-13T05:45:34.733Z,6.93
2022-10-13T05:48:21.292Z,7.07
2022-10-13T05:51:12.816Z,8.10
2022-10-13T05:54:03.655Z,8.03
2022-10-13T05:56:55.208Z,8.07
2022-10-13T05:59:45.299Z,7.20
2022-10-13T06:02:40.921Z,7.70
2022-10-13T06:05:29.198Z,8.77
2022-10-13T06:08:16.243Z,8.47
2022-10-13T06:11:04.825Z,7.77
2022-10-13T06:13:51.542Z,8.93
2022-10-13T06:16:38.325Z,9.23
2022-10-13T06:19:26.532Z,9.03
2022-10-13T06:22:13.197Z,8.27
2022-10-13T06:24:59.997Z,8.83
2022-10-13T06:27:46.870Z,10.33
2022-10-13T06:30:33.872Z,9.00
2022-10-13T06:33:20.775Z,9.97
2022-10-13T06:36:09.798Z,9.60
2022-10-13T06:38:56.446Z,9.07
2022-10-13T06:41:43.972Z,8.83
2022-10-13T06:44:31.792Z,9.23
2022-10-13T06:47:21.233Z,9.13
2022-10-13T06:50:08.539Z,9.50
2022-10-13T06:52:57.818Z,9.23
2022-10-13T06:55:45.545Z,8.13
2022-10-13T06:58:35.853Z,9.23
2022-10-13T07:01:22.785Z,8.40
2022-10-13T07:04:09.384Z,9.90
2022-10-13T07:06:56.036Z,8.67
2022-10-13T07:09:44.152Z,9.30
2022-10-13T07:12:30.979Z,8.23
2022-10-13T07:15:18.050Z,8.53
2022-10-13T07:18:05.871Z,8.17
2022-10-13T07:20:52.801Z,8.53
2022-10-13T07:23:39.832Z,9.10
2022-10-13T07:26:28.005Z,8.53
2022-10-13T07:29:14.780Z,9.00
2022-10-13T07:32:01.575Z,8.73
2022-10-13T07:34:48.538Z,8.30
2022-10-13T07:37:35.043Z,8.33
2022-10-13T07:40:21.878Z,8.60
2022-10-13T07:43:10.177Z,8.87
2022-10-13T07:45:59.142Z,9.43
2022-10-13T07:48:47.191Z,8.97
2022-10-13T07:51:33.889Z,7.83
2022-10-13T07:54:23.809Z,9.17
2022-10-13T07:57:15.366Z,8.70
2022-10-13T08:00:03.677Z,9.23
2022-10-13T08:02:58.758Z,9.20
2022-10-13T08:05:45.460Z,9.53
2022-10-13T08:08:33.129Z,8.20
2022-10-13T08:11:20.080Z,9.87
2022-10-13T08:14:06.529Z,8.60
2022-10-13T08:16:54.715Z,8.87
2022-10-13T08:19:41.538Z,9.73
2022-10-13T08:22:28.722Z,9.27
2022-10-13T08:25:15.332Z,9.50
2022-10-13T08:28:02.243Z,8.17
2022-10-13T08:30:50.597Z,9.63
2022-10-13T08:33:38.661Z,8.43
2022-10-13T08:36:26.155Z,9.10
2022-10-13T08:39:14.191Z,7.67
2022-10-13T08:42:01.768Z,8.57
2022-10-13T08:45:28.394Z,8.93
2022-10-13T08:48:03.972Z,10.43
2022-10-13T08:50:56.048Z,9.67
2022-10-13T08:53:44.957Z,8.93
2022-10-13T08:56:34.723Z,9.20
2022-10-13T08:59:22.125Z,7.90
2022-10-13T09:02:15.413Z,8.70
2022-10-13T09:05:04.494Z,8.40
2022-10-13T09:10:50.469Z,9.07
2022-10-13T09:13:38.667Z,10.77
2022-10-13T09:16:30.666Z,9.50
2022-10-13T09:19:23.882Z,8.70
2022-10-13T09:22:23.122Z,9.67
2022-10-13T09:25:20.020Z,9.07
2022-10-13T09:28:15.480Z,9.90
2022-10-13T09:31:04.978Z,9.30
2022-10-13T09:34:00.633Z,8.87
2022-10-13T09:36:57.836Z,8.70
2022-10-13T09:39:44.661Z,8.70
2022-10-13T09:42:33.164Z,10.13
2022-10-13T09:45:23.343Z,9.37
2022-10-13T09:48:20.432Z,8.57
2022-10-13T09:51:07.118Z,9.50
2022-10-13T09:53:53.797Z,8.00
2022-10-13T09:56:44.888Z,7.83
2022-10-13T09:59:36.518Z,7.97
2022-10-13T10:02:33.339Z,8.37
2022-10-13T10:05:25.205Z,8.70
2022-10-13T10:08:25.366Z,8.77
2022-10-13T10:11:28.657Z,8.57
2022-10-13T10:14:20.825Z,9.33
2022-10-13T10:17:21.681Z,8.93
2022-10-13T10:20:30.166Z,8.90
2022-10-13T10:23:23.068Z,8.67
2022-10-13T10:26:22.138Z,7.83
2022-10-13T10:29:31.568Z,8.63
2022-10-13T10:32:29.958Z,9.13
2022-10-13T10:35:22.753Z,9.47
2022-10-13T10:38:23.696Z,9.13
2022-10-13T10:41:17.689Z,9.07
2022-10-13T10:44:09.683Z,8.73
2022-10-13T10:47:02.658Z,8.70
2022-10-13T10:49:52.445Z,8.47
2022-10-13T10:52:50.387Z,7.83
2022-10-13T10:55:48.524Z,8.43
2022-10-13T10:58:43.285Z,8.63
2022-10-13T11:01:38.644Z,8.50
2022-10-13T11:04:41.750Z,8.23
2022-10-13T11:07:58.985Z,9.07
2022-10-13T11:10:45.777Z,8.57
2022-10-13T11:13:52.978Z,9.07
2022-10-13T11:16:42.090Z,8.73
2022-10-13T11:19:34.480Z,9.23
2022-10-13T11:22:23.967Z,9.27
2022-10-13T11:25:39.578Z,8.60
2022-10-13T11:28:47.576Z,8.00
2022-10-13T11:31:50.367Z,9.37
2022-10-13T11:34:37.056Z,9.53
2022-10-13T11:37:32.054Z,9.60
2022-10-13T11:40:26.143Z,9.17
2022-10-13T11:43:34.945Z,10.27
2022-10-13T11:46:39.165Z,10.37
2022-10-13T11:50:03.649Z,10.43
2022-10-13T11:53:05.766Z,10.10
2022-10-13T11:55:54.511Z,10.33
2022-10-13T11:58:43.576Z,10.70
2022-10-13T12:01:30.505Z,10.53
2022-10-13T12:04:17.400Z,10.50
2022-10-13T12:07:06.705Z,10.37
2022-10-13T12:09:56.170Z,11.43
2022-10-13T12:12:47.788Z,10.93
2022-10-13T12:15:37.928Z,11.63
2022-10-13T12:18:27.724Z,9.70
2022-10-13T12:21:19.912Z,10.80
2022-10-13T12:24:09.740Z,10.50
2022-10-13T12:26:57.604Z,11.57
2022-10-13T12:29:44.617Z,10.73
2022-10-13T12:32:36.045Z,9.57
2022-10-13T12:35:25.148Z,9.80
2022-10-13T12:38:19.302Z,9.83
2022-10-13T12:41:07.288Z,10.37
2022-10-13T12:43:54.956Z,8.97
2022-10-13T12:46:44.243Z,9.20
2022-10-13T12:49:33.971Z,10.50
2022-10-13T12:52:25.774Z,11.07
2022-10-13T12:55:20.471Z,11.10
2022-10-13T12:58:07.284Z,10.93
2022-10-13T13:01:02.178Z,10.43
2022-10-13T13:03:56.087Z,11.40
2022-10-13T13:06:53.837Z,10.83
2022-10-13T13:09:42.022Z,11.40
2022-10-13T13:12:29.812Z,9.90
2022-10-13T13:15:32.960Z,10.93
2022-10-13T13:18:36.841Z,9.57
2022-10-13T13:21:23.285Z,10.43
2022-10-13T13:24:21.932Z,10.57
2022-10-13T13:27:19.512Z,10.00
2022-10-13T13:30:12.497Z,9.83
2022-10-13T13:32:59.509Z,10.50
2022-10-13T13:35:48.532Z,9.57
2022-10-13T13:38:35.264Z,10.00
2022-10-13T13:41:27.801Z,10.17
2022-10-13T13:44:14.847Z,9.73
2022-10-13T13:47:01.686Z,9.17
2022-10-13T13:49:49.780Z,10.13
2022-10-13T13:52:36.496Z,10.03
2022-10-13T13:55:23.627Z,9.60
2022-10-13T13:58:11.589Z,9.77
2022-10-13T14:00:57.961Z,10.23
2022-10-13T14:03:45.371Z,9.43
2022-10-13T14:06:34.884Z,9.27
2022-10-13T14:09:21.758Z,10.03
2022-10-13T14:12:08.512Z,9.23
2022-10-13T14:14:56.981Z,8.63
2022-10-13T14:17:43.781Z,10.27
2022-10-13T14:20:30.168Z,9.37
2022-10-13T14:23:16.870Z,8.93
2022-10-13T14:26:07.935Z,9.60
2022-10-13T14:28:54.646Z,9.30
2022-10-13T14:31:42.750Z,9.10
2022-10-13T14:34:29.441Z,8.50
2022-10-13T14:37:18.862Z,7.40
2022-10-13T14:40:08.516Z,7.60
2022-10-13T14:42:55.253Z,6.93
2022-10-13T14:45:41.945Z,7.17
2022-10-13T14:48:33.398Z,6.67
2022-10-13T14:51:19.937Z,6.30
2022-10-13T14:54:07.134Z,6.73
2022-10-13T14:56:53.994Z,6.93
2022-10-13T14:59:40.737Z,6.73
2022-10-13T15:02:27.571Z,6.70
2022-10-13T15:05:15.685Z,7.13
2022-10-13T15:08:02.360Z,7.20
2022-10-13T15:10:48.787Z,7.03
2022-10-13T15:13:35.548Z,6.50
2022-10-13T15:16:24.568Z,6.47
2022-10-13T15:19:11.496Z,6.07
2022-10-13T15:21:59.380Z,5.90
2022-10-13T15:24:46.233Z,5.87
2022-10-13T15:27:34.305Z,6.20
2022-10-13T15:30:23.557Z,5.70
2022-10-13T15:33:10.248Z,5.33
2022-10-13T15:35:58.354Z,6.07
2022-10-13T15:38:46.483Z,5.37
2022-10-13T15:41:33.131Z,6.23
2022-10-13T15:44:21.192Z,5.83
2022-10-13T15:47:08.905Z,5.67
2022-10-13T15:49:56.889Z,5.40
2022-10-13T15:52:43.827Z,6.13
2022-10-13T15:55:31.911Z,6.07
2022-10-13T15:58:19.508Z,5.50
2022-10-13T16:01:08.996Z,5.97
2022-10-13T16:03:56.211Z,6.80
2022-10-13T16:06:42.582Z,6.40
2022-10-13T16:09:29.582Z,6.90
2022-10-13T16:12:18.234Z,7.27
2022-10-13T16:15:05.252Z,5.93
2022-10-13T16:17:52.861Z,6.43
2022-10-13T16:20:45.321Z,6.13
2022-10-13T16:23:32.181Z,6.63
2022-10-13T16:26:19.793Z,6.60
2022-10-13T16:29:07.693Z,6.80
2022-10-13T16:31:55.009Z,6.80
2022-10-13T16:34:41.926Z,6.77
2022-10-13T16:37:29.209Z,7.43
2022-10-13T16:40:16.113Z,7.10
2022-10-13T16:43:02.708Z,7.20
2022-10-13T16:46:00.112Z,12.27
2022-10-13T16:48:48.789Z,7.90
2022-10-13T16:51:35.777Z,7.93
2022-10-13T16:54:22.564Z,7.80
2022-10-13T16:57:10.355Z,8.23
2022-10-13T16:59:56.966Z,7.23
2022-10-13T17:02:49.247Z,7.33
2022-10-13T17:05:35.821Z,7.60
2022-10-13T17:08:22.603Z,7.20
2022-10-13T17:11:17.689Z,7.27
2022-10-13T17:14:05.643Z,7.27
2022-10-13T17:16:57.377Z,7.60
2022-10-13T17:19:45.949Z,7.33
2022-10-13T17:22:32.882Z,7.30
2022-10-13T17:25:19.549Z,7.13
2022-10-13T17:28:06.387Z,7.93
2022-10-13T17:31:00.574Z,6.77
2022-10-13T17:33:48.098Z,7.20
2022-10-13T17:36:36.844Z,7.23
2022-10-13T17:39:29.437Z,8.23
2022-10-13T17:42:16.378Z,7.30
2022-10-13T17:45:03.275Z,7.70
2022-10-13T17:47:50.518Z,7.60
2022-10-13T17:50:38.154Z,8.27
2022-10-13T17:53:26.301Z,10.83
2022-10-13T17:56:15.564Z,9.23
2022-10-13T17:59:02.447Z,8.73
2022-10-13T18:01:50.176Z,9.10
2022-10-13T18:04:37.234Z,8.50
2022-10-13T18:07:23.873Z,8.37
2022-10-13T18:10:13.004Z,8.07
2022-10-13T18:13:00.010Z,8.07
2022-10-13T18:15:46.926Z,8.70
2022-10-13T18:18:34.174Z,8.63
2022-10-13T18:21:24.130Z,10.63
2022-10-13T18:24:12.264Z,9.90
2022-10-13T18:27:00.349Z,9.93
2022-10-13T18:29:48.317Z,10.57
2022-10-13T18:32:35.212Z,10.20
2022-10-13T18:35:22.010Z,10.07
2022-10-13T18:38:08.789Z,9.83
2022-10-13T18:41:01.051Z,9.23
2022-10-13T18:43:50.978Z,7.87
2022-10-13T18:46:39.257Z,7.87
2022-10-13T18:49:31.198Z,8.80
2022-10-13T18:52:17.997Z,8.00
2022-10-13T18:55:05.148Z,8.57
2022-10-13T18:57:52.683Z,9.67
2022-10-13T19:00:41.464Z,8.33
2022-10-13T19:03:28.374Z,8.77
2022-10-13T19:06:17.289Z,9.70
2022-10-13T19:09:08.602Z,9.00
2022-10-13T19:11:56.674Z,8.40
2022-10-13T19:14:45.147Z,9.97
2022-10-13T19:17:33.643Z,9.03
2022-10-13T19:20:20.777Z,8.60
2022-10-13T19:23:09.909Z,9.67
2022-10-13T19:25:56.996Z,9.60
2022-10-13T19:28:44.395Z,9.27
2022-10-13T19:31:34.188Z,9.47
2022-10-13T19:34:27.985Z,9.40
2022-10-13T19:37:16.504Z,8.93
2022-10-13T19:40:04.603Z,9.53
2022-10-13T19:42:52.209Z,9.47
2022-10-13T19:45:46.657Z,9.47
2022-10-13T19:48:34.877Z,9.30
2022-10-13T19:51:22.979Z,9.97
2022-10-13T19:54:11.163Z,11.73
2022-10-13T19:56:59.191Z,10.50
2022-10-13T19:59:47.795Z,9.80
2022-10-13T20:02:34.858Z,10.43
2022-10-13T20:05:25.387Z,9.90
2022-10-13T20:08:13.956Z,9.80
2022-10-13T20:11:07.271Z,9.67
2022-10-13T20:13:54.317Z,9.67
2022-10-13T20:16:40.816Z,10.17
2022-10-13T20:19:27.532Z,10.80
2022-10-13T20:22:14.320Z,10.70
2022-10-13T20:25:02.260Z,10.13
2022-10-13T20:27:49.946Z,10.67
2022-10-13T20:30:40.315Z,10.10
2022-10-13T20:33:27.189Z,11.33
2022-10-13T20:36:15.600Z,11.17
2022-10-13T20:39:03.096Z,10.43
2022-10-13T20:41:52.169Z,10.17
2022-10-13T20:44:39.628Z,9.73
2022-10-13T20:47:26.163Z,9.73
2022-10-13T20:50:12.896Z,11.00
2022-10-13T20:52:59.738Z,11.80
2022-10-13T20:55:55.597Z,9.43
2022-10-13T20:58:44.009Z,10.70
2022-10-13T21:01:30.933Z,10.00
2022-10-13T21:04:17.444Z,10.77
2022-10-13T21:07:04.356Z,10.60
2022-10-13T21:09:53.779Z,10.07
2022-10-13T21:12:40.683Z,11.03
2022-10-13T21:15:29.139Z,10.70
2022-10-13T21:18:16.776Z,11.00
2022-10-13T21:21:04.393Z,11.53
2022-10-13T21:23:51.451Z,11.87
2022-10-13T21:26:38.800Z,12.07
2022-10-13T21:29:25.737Z,11.70
2022-10-13T21:32:13.560Z,11.50
2022-10-13T21:35:04.021Z,12.93
2022-10-13T21:37:51.190Z,12.17
2022-10-13T21:40:39.098Z,12.37
2022-10-13T21:43:26.450Z,12.37
2022-10-13T21:46:14.378Z,11.63
2022-10-13T21:49:07.007Z,12.80
2022-10-13T21:51:54.329Z,13.30
2022-10-13T21:54:41.406Z,14.60
2022-10-13T21:57:27.900Z,13.27
2022-10-13T22:00:15.460Z,12.30
2022-10-13T22:03:02.283Z,12.73
2022-10-13T22:05:50.343Z,12.63
2022-10-13T22:08:39.105Z,13.10
2022-10-13T22:11:36.984Z,12.03
2022-10-13T22:14:30.261Z,12.27
2022-10-13T22:17:16.766Z,11.27
2022-10-13T22:20:03.461Z,12.10
2022-10-13T22:22:51.628Z,11.87
2022-10-13T22:25:44.698Z,10.87
2022-10-13T22:28:37.022Z,10.97
2022-10-13T22:31:24.608Z,11.73
2022-10-13T22:34:13.037Z,11.00
2022-10-13T22:36:59.893Z,11.50
2022-10-13T22:39:49.065Z,10.70
2022-10-13T22:42:35.758Z,12.00
2022-10-13T22:45:22.457Z,11.80
2022-10-13T22:48:12.185Z,12.07
2022-10-13T22:50:58.862Z,11.80
2022-10-13T22:53:49.662Z,10.60
2022-10-13T22:56:37.670Z,12.20
2022-10-13T22:59:24.657Z,13.17
2022-10-13T23:02:11.404Z,12.50
2022-10-13T23:04:58.785Z,13.10
2022-10-13T23:07:45.868Z,13.03
2022-10-13T23:10:32.627Z,12.67
2022-10-13T23:13:20.779Z,12.50
2022-10-13T23:16:10.776Z,11.80
2022-10-13T23:18:57.844Z,12.90
2022-10-13T23:21:44.246Z,12.17
2022-10-13T23:24:31.207Z,12.90
2022-10-13T23:27:20.660Z,12.70
2022-10-13T23:30:11.959Z,13.57
2022-10-13T23:32:58.566Z,12.77
2022-10-13T23:35:45.337Z,12.37
2022-10-13T23:38:34.450Z,12.23
2022-10-13T23:41:22.290Z,12.87
2022-10-13T23:44:08.884Z,13.27
2022-10-13T23:46:57.260Z,13.00
2022-10-13T23:49:43.635Z,13.03
2022-10-13T23:52:30.461Z,12.10
2022-10-13T23:55:17.324Z,12.73
2022-10-13T23:58:04.285Z,11.97
